Time;durP1;ratioP1;P1;durP2;ratioP2;P2;SDS_P1;SDS_P2;PMS_P1;PMS_P2;Temp;Humidity;BMP_temperature;BMP_pressure;BME280_temperature;BME280_humidity;BME280_pressure;Samples;Min_cycle;Max_cycle;Signal;HPM_P1;HPM_P2
2021/12/04 00:01:17;;;;;;;7.80;6.30;;;;;;;1.15;70.70;95600.66;5075243;28;20060;-75
2021/12/04 00:03:46;;;;;;;9.95;6.75;;;;;;;1.13;70.68;95596.63;5075751;28;20056;-75
2021/12/04 00:06:19;;;;;;;7.78;6.45;;;;;;;1.12;70.81;95600.16;5075140;28;20425;-75
2021/12/04 00:08:47;;;;;;;8.23;5.70;;;;;;;1.12;71.20;95593.25;5075470;28;20048;-75
2021/12/04 00:11:15;;;;;;;9.95;6.45;;;;;;;1.12;71.59;95593.25;5075541;28;20049;-75
2021/12/04 00:13:43;;;;;;;8.38;5.97;;;;;;;1.14;71.79;95581.06;5074900;28;20059;-75
2021/12/04 00:16:10;;;;;;;9.07;6.38;;;;;;;1.15;71.80;95569.84;5074872;28;20075;-75
2021/12/04 00:18:38;;;;;;;8.20;6.25;;;;;;;1.14;71.84;95563.09;5075133;28;20095;-75
2021/12/04 00:21:07;;;;;;;10.20;6.88;;;;;;;1.15;72.08;95553.63;5074908;28;20481;-74
2021/12/04 00:23:36;;;;;;;9.35;6.45;;;;;;;1.13;71.98;95556.34;5074986;28;20422;-74
2021/12/04 00:26:04;;;;;;;8.88;5.97;;;;;;;1.10;72.30;95554.06;5073948;28;20056;-75
2021/12/04 00:28:32;;;;;;;7.95;5.97;;;;;;;1.11;72.50;95550.53;5074683;28;20088;-75
2021/12/04 00:31:04;;;;;;;9.00;6.78;;;;;;;1.12;72.76;95544.47;5074360;28;20066;-75
2021/12/04 00:33:33;;;;;;;9.32;6.45;;;;;;;1.15;73.04;95544.16;5074772;28;20045;-75
2021/12/04 00:36:03;;;;;;;8.88;5.60;;;;;;;1.16;72.13;95542.38;5073869;28;20422;-75
2021/12/04 00:49:32;;;;;;;10.13;6.55;;;;;;;1.22;71.92;95528.94;5074592;28;20048;-75
2021/12/04 00:51:59;;;;;;;8.65;6.45;;;;;;;1.23;71.91;95517.72;5073998;28;20052;-75
2021/12/04 00:54:29;;;;;;;8.70;6.32;;;;;;;1.22;72.19;95513.53;5073174;28;20529;-75
2021/12/04 00:56:56;;;;;;;11.90;7.35;;;;;;;1.22;71.88;95514.38;5074003;28;20049;-75
2021/12/04 00:59:24;;;;;;;12.77;7.90;;;;;;;1.21;72.03;95517.88;5074005;28;20052;-75
2021/12/04 01:01:52;;;;;;;10.38;7.32;;;;;;;1.19;71.80;95509.50;5074260;28;20048;-75
2021/12/04 01:04:21;;;;;;;11.35;7.63;;;;;;;1.18;71.77;95513.03;5074041;28;20051;-74
2021/12/04 01:06:50;;;;;;;11.15;7.40;;;;;;;1.13;71.61;95504.97;5073608;28;20048;-75
2021/12/04 01:09:21;;;;;;;10.90;7.22;;;;;;;1.12;72.01;95503.38;5074090;28;20053;-75
2021/12/04 01:11:51;;;;;;;10.07;7.40;;;;;;;1.09;71.85;95511.34;5073540;28;20056;-75
2021/12/04 01:14:22;;;;;;;10.55;7.65;;;;;;;1.10;72.05;95504.47;5073473;28;20041;-75
2021/12/04 01:16:51;;;;;;;11.55;7.30;;;;;;;1.13;72.14;95493.88;5073431;28;20055;-75
2021/12/04 01:19:19;;;;;;;8.63;6.80;;;;;;;1.16;71.95;95494.41;5073591;28;20070;-75
2021/12/04 01:21:48;;;;;;;12.57;7.80;;;;;;;1.15;72.07;95485.06;5073299;28;20051;-75
2021/12/04 01:24:16;;;;;;;13.35;7.90;;;;;;;1.12;71.67;95482.03;5073139;28;20422;-75
2021/12/04 01:26:43;;;;;;;12.18;7.95;;;;;;;1.10;72.15;95489.06;5073130;28;20048;-75
2021/12/04 01:29:13;;;;;;;10.38;6.95;;;;;;;1.14;72.81;95485.25;5073465;28;20049;-75
2021/12/04 01:31:41;;;;;;;9.40;7.00;;;;;;;1.24;72.58;95481.59;5073356;28;20048;-75
2021/12/04 01:34:08;;;;;;;14.18;8.85;;;;;;;1.34;72.43;95480.72;5073110;28;20538;-75
2021/12/04 01:36:36;;;;;;;10.23;7.03;;;;;;;1.39;72.10;95473.34;5072828;28;20055;-75
2021/12/04 01:39:06;;;;;;;10.68;7.40;;;;;;;1.40;71.73;95454.38;5073145;28;20052;-75
2021/12/04 01:41:34;;;;;;;10.00;7.00;;;;;;;1.41;71.38;95443.16;5072777;28;20048;-75
2021/12/04 01:44:05;;;;;;;11.65;6.40;;;;;;;1.40;71.55;95438.97;5071385;28;20079;-74
2021/12/04 01:46:35;;;;;;;9.73;7.38;;;;;;;1.41;72.68;95440.59;5071040;28;20045;-75
2021/12/04 01:49:04;;;;;;;11.32;7.22;;;;;;;1.48;72.23;95438.22;5071268;28;20498;-75
2021/12/04 01:51:31;;;;;;;10.68;7.38;;;;;;;1.55;72.70;95436.63;5071992;28;20045;-75
2021/12/04 01:53:59;;;;;;;9.80;6.68;;;;;;;1.65;73.12;95442.47;5073346;28;20052;-74
2021/12/04 01:56:30;;;;;;;10.77;6.88;;;;;;;1.71;73.07;95428.19;5071888;28;20532;-75
2021/12/04 01:58:57;;;;;;;9.77;7.03;;;;;;;1.76;72.66;95428.53;5071382;28;20051;-75
2021/12/04 02:01:25;;;;;;;13.30;7.10;;;;;;;1.79;72.71;95426.47;5070608;28;20502;-75
2021/12/04 02:03:54;;;;;;;9.07;6.53;;;;;;;1.80;72.41;95434.97;5071168;28;20102;-75
2021/12/04 02:06:22;;;;;;;8.18;6.40;;;;;;;1.76;71.75;95407.97;5071080;28;20044;-75
2021/12/04 02:08:49;;;;;;;9.85;7.18;;;;;;;1.68;72.09;95405.34;5071285;28;20052;-75
2021/12/04 02:11:17;;;;;;;9.27;6.05;;;;;;;1.55;71.70;95416.91;5082066;28;20044;-75
2021/12/04 02:13:45;;;;;;;9.10;5.82;;;;;;;1.44;71.94;95419.72;5096376;28;20059;-74
2021/12/04 02:16:17;;;;;;;11.88;7.65;;;;;;;1.37;72.79;95411.00;5089329;28;20053;-75
2021/12/04 02:18:45;;;;;;;10.15;7.00;;;;;;;1.32;72.72;95410.69;5073634;28;20147;-75
2021/12/04 02:21:14;;;;;;;10.57;6.45;;;;;;;1.31;73.01;95407.31;5073073;28;20083;-75
2021/12/04 02:23:42;;;;;;;9.35;6.78;;;;;;;1.34;73.00;95407.00;5090040;28;20032;-74
2021/12/04 02:26:11;;;;;;;8.25;6.57;;;;;;;1.35;72.55;95398.31;5091130;28;20127;-75
2021/12/04 02:28:39;;;;;;;9.50;6.40;;;;;;;1.33;72.72;95402.00;5072945;28;20137;-75
2021/12/04 02:31:07;;;;;;;9.88;6.25;;;;;;;1.33;73.02;95387.38;5073141;28;20049;-75
2021/12/04 02:33:35;;;;;;;9.55;5.90;;;;;;;1.32;72.68;95382.41;5073037;28;20044;-75
2021/12/04 02:36:06;;;;;;;9.25;5.95;;;;;;;1.29;72.93;95380.97;5072301;28;20060;-75
2021/12/04 02:38:37;;;;;;;8.30;5.90;;;;;;;1.26;73.10;95370.97;5072849;28;20533;-75
2021/12/04 02:41:05;;;;;;;9.98;6.82;;;;;;;1.28;73.47;95360.56;5072781;28;20056;-75
2021/12/04 02:43:34;;;;;;;9.15;6.10;;;;;;;1.30;73.50;95359.44;5072830;28;20052;-74
2021/12/04 02:46:02;;;;;;;8.32;5.97;;;;;;;1.32;73.52;95349.03;5072140;28;20055;-75
2021/12/04 02:48:30;;;;;;;11.50;6.22;;;;;;;1.30;73.72;95350.94;5072077;28;20118;-75
2021/12/04 02:50:58;;;;;;;8.90;5.75;;;;;;;1.30;74.36;95341.47;5072055;28;20053;-74
2021/12/04 02:53:25;;;;;;;9.15;6.40;;;;;;;1.31;74.66;95347.41;5072576;28;20048;-75
2021/12/04 02:55:54;;;;;;;8.48;5.68;;;;;;;1.33;74.42;95340.34;5095560;28;20049;-75
2021/12/04 02:58:22;;;;;;;7.68;5.75;;;;;;;1.37;74.34;95331.38;5095491;28;20045;-75
2021/12/04 03:00:51;;;;;;;8.38;5.47;;;;;;;1.37;74.36;95326.22;5093309;28;20053;-75
2021/12/04 03:03:20;;;;;;;9.55;5.68;;;;;;;1.34;74.78;95322.22;5090119;28;20049;-75
2021/12/04 03:05:49;;;;;;;9.48;5.22;;;;;;;1.36;75.03;95328.00;5088045;28;20072;-75
2021/12/04 03:08:17;;;;;;;9.65;6.10;;;;;;;1.39;75.41;95317.41;5075297;28;20055;-75
2021/12/04 03:10:47;;;;;;;7.45;5.25;;;;;;;1.40;75.03;95311.31;5073329;28;20052;-75
2021/12/04 03:13:17;;;;;;;7.43;5.32;;;;;;;1.42;75.49;95306.00;5084432;28;20048;-75
2021/12/04 03:15:48;;;;;;;8.95;5.35;;;;;;;1.42;75.36;95301.69;5095480;28;20052;-74
2021/12/04 03:18:16;;;;;;;7.95;4.60;;;;;;;1.47;75.09;95298.66;5081474;28;20066;-75
2021/12/04 03:20:45;;;;;;;6.95;4.78;;;;;;;1.48;75.08;95297.66;5076333;28;20497;-75
2021/12/04 03:23:18;;;;;;;6.60;4.90;;;;;;;1.50;75.85;95303.47;5076171;28;20061;-75
2021/12/04 03:25:49;;;;;;;7.45;4.80;;;;;;;1.50;75.67;95292.38;5076171;28;20498;-75
2021/12/04 03:28:19;;;;;;;6.55;4.47;;;;;;;1.49;75.54;95294.16;5076206;28;20052;-75
2021/12/04 03:30:50;;;;;;;8.00;4.63;;;;;;;1.51;76.05;95281.94;5076131;28;20052;-75
2021/12/04 03:41:33;;;;;;;7.65;4.68;;;;;;;1.50;76.72;95275.19;5075283;28;20049;-75
2021/12/04 03:44:02;;;;;;;7.70;4.28;;;;;;;1.52;76.80;95268.13;5075551;28;20051;-75
2021/12/04 03:46:30;;;;;;;5.38;4.30;;;;;;;1.52;76.45;95262.97;5075436;28;20445;-75
2021/12/04 03:48:57;;;;;;;7.15;4.55;;;;;;;1.53;76.26;95256.91;5075530;28;20105;-75
2021/12/04 03:51:25;;;;;;;6.00;4.50;;;;;;;1.52;76.07;95252.72;5096723;22;20063;-78
2021/12/04 03:53:52;;;;;;;5.35;4.32;;;;;;;1.51;76.51;95245.97;5075050;28;20055;-77
2021/12/04 03:56:23;;;;;;;5.90;4.50;;;;;;;1.51;76.39;95245.97;5074661;28;20071;-77
2021/12/04 03:58:51;;;;;;;4.40;3.67;;;;;;;1.53;76.33;95235.50;5075354;28;20053;-78
2021/12/04 04:01:20;;;;;;;4.22;3.72;;;;;;;1.54;76.70;95230.22;5085246;28;20051;-77
2021/12/04 04:03:48;;;;;;;6.63;4.70;;;;;;;1.54;76.41;95225.09;5095550;28;20368;-77
2021/12/04 04:06:16;;;;;;;4.97;3.88;;;;;;;1.53;76.62;95218.34;5094781;28;20055;-77
2021/12/04 04:08:44;;;;;;;5.00;4.00;;;;;;;1.53;76.44;95215.78;5095012;28;20055;-77
2021/12/04 04:11:11;;;;;;;5.40;3.75;;;;;;;1.52;76.53;95211.59;5094685;28;20421;-77
2021/12/04 04:13:42;;;;;;;6.25;3.70;;;;;;;1.51;76.32;95209.16;5094969;28;20040;-77
2021/12/04 04:16:10;;;;;;;4.30;3.88;;;;;;;1.51;76.62;95210.00;5094459;28;20425;-78
2021/12/04 04:18:39;;;;;;;7.78;4.80;;;;;;;1.49;76.88;95209.34;5094656;28;20506;-77
2021/12/04 04:21:07;;;;;;;6.95;4.55;;;;;;;1.51;76.85;95204.03;5094646;28;20059;-77
2021/12/04 04:23:34;;;;;;;13.38;6.47;;;;;;;1.51;76.75;95204.84;5094428;28;20044;-77
2021/12/04 04:26:02;;;;;;;13.23;7.95;;;;;;;1.53;76.80;95202.94;5094166;28;20528;-77
2021/12/04 04:28:29;;;;;;;8.30;5.38;;;;;;;1.55;76.91;95200.19;5094596;28;20059;-76
2021/12/04 04:30:57;;;;;;;6.15;4.28;;;;;;;1.52;76.72;95185.09;5094333;28;20052;-77
2021/12/04 04:33:25;;;;;;;5.35;4.10;;;;;;;1.50;77.19;95187.03;5096011;28;20105;-77
2021/12/04 04:36:07;;;;;;;4.88;3.97;;;;;;;1.52;77.13;95185.09;5094822;28;20055;-79
2021/12/04 04:38:43;;;;;;;4.90;3.88;;;;;;;1.55;77.01;95190.72;5094942;28;20512;-79
2021/12/04 04:58:04;;;;;;;4.35;3.03;;;;;;;1.75;76.75;95160.34;5093533;28;20052;-77
2021/12/04 05:11:38;;;;;;;3.00;2.70;;;;;;;1.81;76.65;95140.88;5093163;28;20048;-77
2021/12/04 05:14:06;;;;;;;4.18;3.10;;;;;;;1.81;76.93;95126.25;5093569;28;20077;-75
2021/12/04 05:16:45;;;;;;;5.93;3.35;;;;;;;1.85;76.90;95129.31;5093054;28;20055;-76
2021/12/04 05:19:25;;;;;;;3.90;3.38;;;;;;;1.88;76.96;95125.59;5093284;28;20055;-78
2021/12/04 05:21:53;;;;;;;4.53;3.60;;;;;;;1.91;76.81;95125.28;5093154;28;20067;-77
2021/12/04 05:24:23;;;;;;;3.40;2.78;;;;;;;1.94;77.00;95123.19;5093467;28;20055;-77
2021/12/04 05:26:51;;;;;;;4.32;3.20;;;;;;;1.98;76.93;95126.22;5093153;28;20055;-78
2021/12/04 05:29:18;;;;;;;3.28;2.90;;;;;;;2.01;77.06;95131.03;5093089;28;20145;-77
2021/12/04 05:31:46;;;;;;;4.05;3.00;;;;;;;2.05;77.04;95125.41;5092974;28;20399;-77
2021/12/04 05:34:14;;;;;;;4.22;3.40;;;;;;;2.08;76.93;95119.16;5093263;28;20055;-77
2021/12/04 05:36:42;;;;;;;4.30;3.30;;;;;;;2.09;77.00;95118.16;5092726;28;20040;-77
2021/12/04 05:39:10;;;;;;;4.22;3.45;;;;;;;2.12;77.18;95115.28;5093126;28;20051;-77
2021/12/04 05:41:40;;;;;;;5.15;3.92;;;;;;;2.13;77.28;95116.06;5093103;28;20048;-77
2021/12/04 05:44:10;;;;;;;5.05;3.28;;;;;;;2.14;77.22;95113.31;5093228;28;20047;-77
2021/12/04 05:46:43;;;;;;;4.07;3.40;;;;;;;2.16;77.57;95106.22;5092757;28;20052;-77
2021/12/04 05:49:14;;;;;;;3.35;2.75;;;;;;;2.17;77.43;95112.19;5092916;28;20063;-77
2021/12/04 05:54:44;;;;;;;4.70;3.85;;;;;;;2.21;77.85;95103.19;5082833;28;20504;-77
2021/12/04 05:57:13;;;;;;;4.18;3.45;;;;;;;2.22;77.94;95104.78;5092568;28;20048;-77
2021/12/04 05:59:41;;;;;;;3.42;3.05;;;;;;;2.23;77.84;95108.94;5092620;28;20055;-77
2021/12/04 06:02:08;;;;;;;5.13;3.10;;;;;;;2.25;78.25;95101.88;5092781;28;20223;-77
2021/12/04 06:04:36;;;;;;;4.85;3.42;;;;;;;2.26;78.29;95093.19;5092886;28;20070;-77
2021/12/04 06:07:04;;;;;;;3.80;3.08;;;;;;;2.29;78.14;95099.78;5092260;28;20048;-78
2021/12/04 06:09:31;;;;;;;3.35;2.95;;;;;;;2.30;78.19;95086.75;5092559;28;20048;-77
2021/12/04 06:12:04;;;;;;;3.47;2.80;;;;;;;2.33;78.53;95085.59;5092303;28;20048;-77
2021/12/04 06:14:33;;;;;;;2.70;2.50;;;;;;;2.35;78.27;95097.31;5092719;28;20048;-77
2021/12/04 06:17:01;;;;;;;3.13;2.83;;;;;;;2.37;78.50;95092.81;5092463;28;20048;-77
2021/12/04 06:24:55;;;;;;;3.05;2.70;;;;;;;2.40;78.47;95089.91;5091944;28;20059;-78
2021/12/04 06:27:23;;;;;;;3.53;2.83;;;;;;;2.39;78.89;95090.88;5092136;28;20044;-77
2021/12/04 06:29:52;;;;;;;2.65;2.45;;;;;;;2.40;78.91;95087.31;5092346;28;20051;-77
2021/12/04 06:32:20;;;;;;;6.38;4.13;;;;;;;2.42;79.26;95074.28;5092468;28;20051;-76
2021/12/04 06:34:48;;;;;;;4.88;3.55;;;;;;;2.45;79.09;95079.13;5092288;28;20532;-77
2021/12/04 06:37:16;;;;;;;4.35;3.83;;;;;;;2.45;78.81;95079.91;5092206;28;20052;-75
2021/12/04 06:39:43;;;;;;;3.92;3.40;;;;;;;2.47;79.27;95077.97;5092310;28;20048;-76
2021/12/04 06:42:11;;;;;;;3.70;2.70;;;;;;;2.51;79.11;95075.06;5092792;28;20417;-76
2021/12/04 06:44:39;;;;;;;2.95;2.65;;;;;;;2.55;79.40;95081.47;5092736;28;20055;-77
2021/12/04 06:47:07;;;;;;;3.20;2.72;;;;;;;2.57;79.45;95071.81;5092479;28;20076;-76
2021/12/04 06:49:38;;;;;;;3.88;2.97;;;;;;;2.59;79.22;95062.16;5092681;28;20604;-76
2021/12/04 06:52:10;;;;;;;3.28;2.63;;;;;;;2.60;79.04;95063.75;5103214;28;20056;-76
2021/12/04 06:54:40;;;;;;;2.63;2.42;;;;;;;2.61;79.44;95055.06;5104822;28;20056;-76
2021/12/04 06:57:11;;;;;;;3.53;2.83;;;;;;;2.63;79.25;95053.13;5104669;28;20043;-75
2021/12/04 06:59:40;;;;;;;3.03;2.72;;;;;;;2.64;79.61;95052.13;5104066;28;20059;-75
2021/12/04 07:02:09;;;;;;;2.50;2.30;;;;;;;2.67;79.42;95051.81;5102508;28;20056;-75
2021/12/04 07:04:37;;;;;;;2.78;2.50;;;;;;;2.71;79.69;95050.47;5096967;28;20047;-75
2021/12/04 07:07:05;;;;;;;2.20;2.00;;;;;;;2.75;79.56;95041.44;5096346;28;20048;-75
2021/12/04 07:09:33;;;;;;;2.53;2.13;;;;;;;2.76;79.34;95043.06;5096207;28;20501;-75
2021/12/04 07:12:02;;;;;;;3.55;2.80;;;;;;;2.78;79.79;95041.09;5096084;28;20417;-75
2021/12/04 07:14:31;;;;;;;3.20;2.90;;;;;;;2.78;79.97;95037.75;5096082;28;20054;-75
2021/12/04 07:17:02;;;;;;;5.85;2.50;;;;;;;2.79;79.69;95031.59;5096662;28;20063;-75
2021/12/04 07:19:32;;;;;;;3.75;1.80;;;;;;;2.81;79.71;95029.66;5096734;28;20059;-76
2021/12/04 07:22:02;;;;;;;2.22;1.95;;;;;;;2.85;80.02;95023.19;5096462;28;20064;-76
2021/12/04 07:24:31;;;;;;;2.60;2.38;;;;;;;2.88;79.87;95015.13;5096279;28;20055;-76
2021/12/04 07:26:59;;;;;;;2.17;1.90;;;;;;;2.91;79.78;95017.34;5095790;28;20048;-76
2021/12/04 07:29:26;;;;;;;3.05;2.30;;;;;;;2.94;80.02;95021.34;5096448;28;20502;-75
2021/12/04 07:31:54;;;;;;;4.45;1.88;;;;;;;2.98;79.99;95017.47;5096290;28;20422;-76
2021/12/04 07:34:22;;;;;;;3.78;2.70;;;;;;;3.01;79.72;95017.09;5096274;28;20055;-76
2021/12/04 07:36:50;;;;;;;1.88;1.67;;;;;;;3.05;79.90;95015.78;5095782;28;20048;-77
2021/12/04 07:39:18;;;;;;;2.20;2.00;;;;;;;3.07;79.84;95016.41;5096069;28;20051;-76
2021/12/04 07:41:45;;;;;;;3.20;2.35;;;;;;;3.12;79.76;95008.16;5096450;28;20059;-77
2021/12/04 07:44:13;;;;;;;1.77;1.27;;;;;;;3.15;79.60;95012.97;5096881;28;20056;-75
2021/12/04 07:46:42;;;;;;;1.70;1.30;;;;;;;3.18;80.06;95007.47;5111966;28;20040;-75
2021/12/04 07:49:09;;;;;;;2.08;1.65;;;;;;;3.22;80.09;95009.53;5116758;28;20048;-74
2021/12/04 07:51:37;;;;;;;5.45;3.60;;;;;;;3.26;79.89;95003.03;5115035;28;20089;-75
2021/12/04 07:54:06;;;;;;;6.63;4.00;;;;;;;3.30;79.87;95012.03;5113223;28;20060;-76
2021/12/04 07:56:33;;;;;;;9.82;5.47;;;;;;;3.36;80.12;95020.03;5099900;28;20055;-76
2021/12/04 07:59:01;;;;;;;4.78;2.50;;;;;;;3.41;80.04;95020.28;5098437;28;20048;-76
2021/12/04 08:01:28;;;;;;;4.40;2.10;;;;;;;3.45;79.91;95014.59;5097562;28;20520;-76
2021/12/04 08:03:56;;;;;;;2.08;1.70;;;;;;;3.49;80.01;95017.66;5096482;28;20048;-76
2021/12/04 08:06:24;;;;;;;2.25;1.77;;;;;;;3.53;80.16;95016.31;5096404;28;20051;-77
2021/12/04 08:08:53;;;;;;;1.85;1.52;;;;;;;3.61;80.02;95010.28;5097901;28;20059;-77
2021/12/04 08:11:22;;;;;;;1.10;1.00;;;;;;;3.68;79.84;95008.59;5095499;28;20059;-77
2021/12/04 08:13:50;;;;;;;3.30;2.22;;;;;;;3.72;79.52;95013.22;5095337;28;20048;-78
2021/12/04 08:16:18;;;;;;;1.48;1.35;;;;;;;3.77;79.47;95017.84;5094676;28;20138;-78
2021/12/04 08:18:46;;;;;;;3.80;1.45;;;;;;;3.79;79.06;95017.66;5094439;28;20131;-78
2021/12/04 08:21:13;;;;;;;1.65;1.38;;;;;;;3.80;79.66;95014.88;5093753;28;20072;-78
2021/12/04 08:23:41;;;;;;;1.38;1.27;;;;;;;3.85;79.42;95012.59;5093983;28;20480;-77
2021/12/04 08:26:08;;;;;;;4.85;3.25;;;;;;;3.88;79.57;95003.69;5095588;28;20390;-77
2021/12/04 08:28:37;;;;;;;47.95;25.63;;;;;;;3.91;79.06;95003.31;5096362;28;20044;-78
2021/12/04 08:31:05;;;;;;;10.13;5.88;;;;;;;3.93;79.13;95009.09;5095812;28;20048;-77
2021/12/04 08:33:33;;;;;;;3.92;1.85;;;;;;;3.95;79.40;94996.81;5095815;28;20044;-77
2021/12/04 08:36:03;;;;;;;2.28;1.60;;;;;;;3.98;79.27;94999.06;5095381;28;20067;-77
2021/12/04 08:38:37;;;;;;;18.40;5.47;;;;;;;4.03;79.57;95001.09;5095373;28;20394;-77
2021/12/04 08:41:05;;;;;;;10.10;5.22;;;;;;;4.08;79.70;94999.56;5095822;28;20052;-77
2021/12/04 08:43:33;;;;;;;6.15;3.63;;;;;;;4.15;79.75;95004.00;5095156;28;20071;-77
2021/12/04 08:46:03;;;;;;;2.40;1.48;;;;;;;4.17;79.17;95000.25;5094639;28;20079;-78
2021/12/04 08:48:33;;;;;;;1.48;0.95;;;;;;;4.16;79.05;94995.31;5094743;28;20050;-79
2021/12/04 08:51:02;;;;;;;2.13;1.30;;;;;;;4.18;79.11;95004.47;5094450;28;20059;-76
2021/12/04 08:53:29;;;;;;;3.63;1.80;;;;;;;4.19;79.16;95000.09;5094233;28;20044;-77
2021/12/04 08:55:58;;;;;;;6.03;1.60;;;;;;;4.20;79.23;94999.09;5093869;28;20044;-77
2021/12/04 08:58:25;;;;;;;2.55;0.95;;;;;;;4.23;79.49;94996.97;5094648;28;20054;-77
2021/12/04 09:00:56;;;;;;;3.35;1.05;;;;;;;4.25;79.43;95000.16;5097459;28;20544;-77
2021/12/04 09:03:30;;;;;;;2.70;0.80;;;;;;;4.29;79.39;94992.88;5097911;28;20056;-76
2021/12/04 09:05:59;;;;;;;3.10;2.28;;;;;;;4.32;79.39;95000.22;5095967;28;20052;-77
2021/12/04 09:08:29;;;;;;;3.25;2.83;;;;;;;4.35;79.25;95002.44;5097125;28;20065;-77
2021/12/04 09:11:01;;;;;;;5.30;2.70;;;;;;;4.37;79.61;94995.31;5097622;28;20138;-77
2021/12/04 09:13:30;;;;;;;2.20;1.98;;;;;;;4.40;79.27;94992.38;5094676;28;20056;-76
2021/12/04 09:15:58;;;;;;;2.60;2.15;;;;;;;4.44;79.38;95001.38;5093054;28;20048;-74
2021/12/04 09:18:27;;;;;;;2.30;1.50;;;;;;;4.47;79.08;94992.44;5094286;28;20055;-75
2021/12/04 09:20:56;;;;;;;9.68;6.10;;;;;;;4.47;78.98;95002.78;5093863;28;20079;-76
2021/12/04 09:23:31;;;;;;;6.75;4.38;;;;;;;4.50;79.02;95003.22;5093850;28;20052;-76
2021/12/04 09:26:02;;;;;;;5.70;1.50;;;;;;;4.55;79.13;95000.09;5093666;28;20044;-77
2021/12/04 09:28:40;;;;;;;3.92;2.63;;;;;;;4.60;79.46;94994.38;5093798;28;20051;-76
2021/12/04 09:34:09;;;;;;;4.82;1.67;;;;;;;4.69;79.06;95003.59;5093785;28;20044;-77
2021/12/04 10:01:41;;;;;;;1.17;1.08;;;;;;;4.96;79.17;94976.19;5098992;28;20044;-74
2021/12/04 10:04:29;;;;;;;1.00;0.80;;;;;;;5.00;79.24;94955.97;5098698;28;20052;-74
2021/12/04 10:15:38;;;;;;;3.72;1.48;;;;;;;5.10;79.15;94952.06;5090946;28;20508;-75
2021/12/04 10:21:16;;;;;;;8.23;4.32;;;;;;;5.21;79.63;94943.00;5109828;28;20036;-74
2021/12/04 10:24:12;;;;;;;21.65;13.23;;;;;;;5.26;79.90;94935.47;5108903;28;20048;-74
2021/12/04 10:32:34;;;;;;;3.85;2.45;;;;;;;5.42;79.36;94912.88;5104031;28;20032;-74
2021/12/04 10:35:08;;;;;;;2.65;1.52;;;;;;;5.48;79.36;94914.72;5115470;28;20036;-74
2021/12/04 10:37:47;;;;;;;2.13;1.52;;;;;;;5.51;79.55;94914.31;5099483;28;20052;-74
2021/12/04 10:40:18;;;;;;;2.97;1.92;;;;;;;5.51;79.59;94906.56;5096677;28;20043;-75
2021/12/04 10:42:51;;;;;;;2.45;1.77;;;;;;;5.51;79.43;94903.97;5096326;28;20048;-74
2021/12/04 10:45:20;;;;;;;1.80;1.50;;;;;;;5.51;79.08;94888.44;5096572;28;20063;-74
2021/12/04 10:47:52;;;;;;;2.97;1.60;;;;;;;5.53;80.14;94886.47;5096159;28;20048;-75
2021/12/04 10:50:27;;;;;;;;;;;;;;;5.60;80.26;94887.31;5115884;28;20048;-74
2021/12/04 10:52:58;;;;;;;1.83;1.45;;;;;;;5.55;79.42;94887.91;5114810;28;19920;-74
2021/12/04 10:55:32;;;;;;;3.15;1.60;;;;;;;5.51;79.57;94880.69;5109541;28;20055;-74
2021/12/04 10:58:24;;;;;;;2.47;2.15;;;;;;;5.56;80.76;94878.34;5099155;28;20068;-75
2021/12/04 11:01:03;;;;;;;1.85;1.50;;;;;;;5.62;80.97;94875.00;5096965;28;20054;-74
2021/12/04 11:03:42;;;;;;;3.95;1.50;;;;;;;5.65;80.37;94874.59;5096494;28;20062;-75
2021/12/04 11:26:47;;;;;;;23.35;11.38;;;;;;;5.76;79.75;94813.75;5095229;28;20052;-75
2021/12/04 11:38:00;;;;;;;2.63;1.10;;;;;;;5.84;80.58;94803.22;5094355;28;20493;-75
2021/12/04 11:43:18;;;;;;;1.55;1.38;;;;;;;5.91;80.84;94803.22;5081543;28;20048;-74
2021/12/04 11:46:01;;;;;;;2.80;1.50;;;;;;;5.95;81.16;94788.94;5094918;28;20421;-75
2021/12/04 11:48:30;;;;;;;2.85;1.73;;;;;;;6.01;80.93;94782.94;5095246;28;20059;-75
2021/12/04 11:50:58;;;;;;;2.20;1.02;;;;;;;6.06;80.81;94780.59;5095058;28;20059;-75
2021/12/04 11:53:26;;;;;;;0.40;0.40;;;;;;;6.08;80.56;94773.41;5094954;28;20464;-75
2021/12/04 11:55:55;;;;;;;2.45;1.00;;;;;;;6.14;81.22;94772.63;5094652;28;20056;-75
2021/12/04 11:58:25;;;;;;;2.47;1.88;;;;;;;6.21;80.96;94775.22;5094785;28;20048;-75
2021/12/04 12:00:57;;;;;;;2.42;1.30;;;;;;;6.26;80.38;94765.03;5095010;28;20048;-75
2021/12/04 12:03:28;;;;;;;1.33;1.23;;;;;;;6.30;80.21;94776.59;5094949;28;20051;-75
2021/12/04 12:05:58;;;;;;;3.22;2.72;;;;;;;6.35;80.38;94770.81;5094374;28;20052;-75
2021/12/04 12:08:30;;;;;;;2.40;1.98;;;;;;;6.37;80.38;94771.41;5094545;28;20051;-74
2021/12/04 12:10:59;;;;;;;;;;;;;;;6.42;80.19;94769.00;5102617;28;20044;-74
2021/12/04 12:13:32;;;;;;;4.97;2.97;;;;;;;6.43;79.71;94760.25;5114023;28;19904;-74
2021/12/04 12:16:08;;;;;;;3.70;1.90;;;;;;;6.46;80.30;94759.84;5109180;28;20055;-74
2021/12/04 12:18:45;;;;;;;3.95;2.08;;;;;;;6.49;79.53;94758.66;5096754;28;20083;-75
2021/12/04 12:21:15;;;;;;;3.17;2.30;;;;;;;6.51;79.34;94757.44;5097435;28;20048;-74
2021/12/04 12:24:16;;;;;;;2.30;1.90;;;;;;;6.55;79.67;94750.88;5109611;28;20060;-74
2021/12/04 12:27:12;;;;;;;6.22;3.67;;;;;;;6.63;80.09;94749.09;5104110;28;20047;-75
2021/12/04 12:38:35;;;;;;;11.13;5.75;;;;;;;6.72;79.90;94737.50;5090067;28;20055;-76
2021/12/04 12:41:07;;;;;;;6.82;4.22;;;;;;;6.70;79.83;94732.50;5094100;28;20052;-75
2021/12/04 12:43:40;;;;;;;64.18;42.78;;;;;;;6.73;79.91;94733.88;5094337;28;20048;-75
2021/12/04 12:46:09;;;;;;;30.83;13.43;;;;;;;6.75;80.14;94737.06;5091828;28;20278;-75
2021/12/04 12:48:47;;;;;;;121.10;68.15;;;;;;;6.76;80.38;94728.31;5091985;28;20052;-75
2021/12/04 12:51:15;;;;;;;12.27;6.35;;;;;;;6.76;80.16;94728.31;5090874;28;20055;-75
2021/12/04 12:53:45;;;;;;;41.15;22.77;;;;;;;6.80;80.17;94730.31;5092175;28;20410;-75
2021/12/04 12:56:15;;;;;;;140.38;71.57;;;;;;;6.83;79.54;94723.91;5091788;28;20113;-75
2021/12/04 12:58:47;;;;;;;74.63;38.03;;;;;;;6.85;79.31;94721.91;5092720;28;20066;-74
2021/12/04 13:12:52;;;;;;;41.63;24.70;;;;;;;7.01;79.34;94710.28;5087603;28;20047;-75
2021/12/04 13:15:32;;;;;;;57.92;36.40;;;;;;;7.03;79.93;94712.69;5094374;28;20539;-75
2021/12/04 13:18:10;;;;;;;14.60;8.65;;;;;;;7.03;79.84;94717.84;5093914;28;20056;-75
2021/12/04 13:20:39;;;;;;;24.92;17.13;;;;;;;7.05;79.39;94710.69;5093689;28;20486;-75
2021/12/04 13:23:11;;;;;;;23.17;16.45;;;;;;;7.06;79.01;94709.66;5093973;28;20044;-75
2021/12/04 13:25:48;;;;;;;1.60;1.30;;;;;;;7.06;79.02;94707.06;5093927;28;20536;-74
2021/12/04 13:30:46;;;;;;;24.17;13.10;;;;;;;7.07;78.92;94706.09;5093905;28;20044;-74
2021/12/04 13:33:14;;;;;;;10.23;6.35;;;;;;;7.07;79.12;94708.66;5093565;28;20059;-74
2021/12/04 13:35:45;;;;;;;7.55;4.32;;;;;;;7.05;78.50;94710.69;5093431;28;20525;-75
2021/12/04 13:38:15;;;;;;;3.53;1.63;;;;;;;7.04;78.77;94704.69;5093748;28;20131;-74
2021/12/04 13:40:48;;;;;;;1.52;0.60;;;;;;;7.07;79.07;94706.09;5093611;28;20052;-74
2021/12/04 13:43:18;;;;;;;0.73;0.60;;;;;;;7.09;78.63;94711.84;5093523;28;20051;-75
2021/12/04 13:45:46;;;;;;;0.45;0.40;;;;;;;7.10;78.71;94710.84;5093302;28;20044;-75
2021/12/04 13:48:13;;;;;;;0.40;0.40;;;;;;;7.09;78.90;94715.25;5093785;28;20048;-75
2021/12/04 13:50:45;;;;;;;0.50;0.50;;;;;;;7.05;78.51;94710.69;5093462;28;20047;-75
2021/12/04 13:53:20;;;;;;;4.80;3.30;;;;;;;7.07;78.96;94711.25;5093680;28;20062;-76
2021/12/04 13:55:52;;;;;;;27.70;17.30;;;;;;;7.08;78.45;94712.84;5093354;28;20483;-75
2021/12/04 13:58:20;;;;;;;4.03;2.53;;;;;;;7.08;78.80;94710.25;5108370;28;20079;-75
2021/12/04 14:00:48;;;;;;;0.80;0.52;;;;;;;7.09;79.11;94712.66;5101133;28;20044;-75
2021/12/04 14:03:21;;;;;;;0.47;0.45;;;;;;;7.12;79.28;94701.06;5102782;28;20052;-75
2021/12/04 14:05:50;;;;;;;;;;;;;;;7.13;79.12;94700.88;5094409;28;20417;-74
2021/12/04 14:08:18;;;;;;;2.85;0.70;;;;;;;7.10;78.87;94701.25;5093542;28;20365;-75
2021/12/04 14:10:47;;;;;;;0.47;0.47;;;;;;;7.10;79.23;94697.88;5101874;28;20044;-75
2021/12/04 14:13:19;;;;;;;0.88;0.52;;;;;;;7.11;79.27;94699.50;5107576;28;20048;-74
2021/12/04 14:15:47;;;;;;;0.45;0.45;;;;;;;7.12;78.90;94701.06;5095564;28;20044;-74
2021/12/04 14:18:17;;;;;;;0.73;0.32;;;;;;;7.13;79.22;94703.47;5093702;28;20086;-75
2021/12/04 14:20:48;;;;;;;0.60;0.30;;;;;;;7.15;79.25;94704.03;5093922;28;20132;-75
2021/12/04 14:23:17;;;;;;;0.40;0.40;;;;;;;7.14;79.06;94704.25;5093500;28;20449;-74
2021/12/04 14:25:46;;;;;;;1.55;0.40;;;;;;;7.13;79.02;94697.47;5093283;28;20056;-75
2021/12/04 14:28:16;;;;;;;0.35;0.30;;;;;;;7.13;79.15;94706.06;5094385;28;20437;-76
2021/12/04 14:30:45;;;;;;;0.85;0.52;;;;;;;7.14;78.87;94709.44;5093218;28;20055;-75